Deer Park, WA (99006)

7:28 AM PST on February 08, 2016 (GMT -0800)
APRSWXNET | | Change Station
CLOSE
Current Station
Personal Weather Station
Location: Deer Park, WA
Elevation: 2181 ft
Nearby Weather Stations

Elev 2181 ft 47.91 °N, 117.55 °W | Updated 2 hours ago

Clear
Clear
29 °F
Feels Like 29 °F
N
0
Wind Variable Wind from NW
Gusts 3.0 mph

Today
High -- | Low -- °F
--% Chance of Precip.
Yesterday
High -- | Low -- °F
Precip. -- in
Pressure 30.69 in
Visibility 10.0 miles
Clouds Clear
Windchill 29 °F
Dew Point 29 °F
Humidity 100%
Rainfall in
Snow Depth Not available.
7:07 AM 5:00 PM
New Moon, 0% visible
METAR KDEW 081453Z AUTO 33004KT 10SM CLR M01/M03 A3062 RMK AO2 SLP390 T10061033 58001 TSNO
Pressure 30.69 in
Visibility 10.0 miles
Clouds Clear
Windchill 29 °F
Dew Point 29 °F
Humidity 100%
Rainfall in
Snow Depth Not available.
7:07 AM 5:00 PM
New Moon, 0% visible
METAR KDEW 081453Z AUTO 33004KT 10SM CLR M01/M03 A3062 RMK AO2 SLP390 T10061033 58001 TSNO

10-Day Weather Forecast

Almanac

Astronomy

Feb. 08, 2016 Rise Set
Actual Time
Civil Twilight
Nautical Twilight
Astronomical Twilight
Moon
Length of Visible Light
Length of Day
Tomorrow will be .
, % of the Moon is Illuminated

Today's Extremes

State Highs State Lows

Community

WunderPhotos

Upload Photos

1,891,441 photos uploaded!

WunderBlog® & News

Nearby

Air Quality

  Air Quality AQ Index Pollutant
Not available.

Snow Depth

Station Depth Elevation

Earthquake Activity

City Distance Mag. Time & Date
Minimum magnitude displayed is 2.5.

Coastal Water Temperatures

Place Temperature

Stations

Nearby Weather Stations

Station Location Temp. Windchill Dew Point Humidity Wind Precip. Elev Updated Type
                   

Watches & Warnings

There are currently no watches in effect.